Time;durP1;ratioP1;P1;durP2;ratioP2;P2;SDS_P1;SDS_P2;PMS_P1;PMS_P2;Temp;Humidity;BMP_temperature;BMP_pressure;BME280_temperature;BME280_humidity;BME280_pressure;Samples;Min_cycle;Max_cycle;Signal;HPM_P1;HPM_P2
2023/04/25 00:00:26;;;;;;;0.40;0.30;;;;;;;22.28;37.23;100957.78;5016243;28;97038;-75
2023/04/25 00:02:53;;;;;;;0.77;0.47;;;;;;;22.27;37.56;100964.28;5017464;28;96796;-75
2023/04/25 00:05:20;;;;;;;0.60;0.30;;;;;;;22.28;37.30;100968.72;5014624;28;97231;-75
2023/04/25 00:07:47;;;;;;;0.60;0.40;;;;;;;22.27;37.28;100967.88;5019897;27;96725;-75
2023/04/25 00:10:13;;;;;;;0.82;0.40;;;;;;;22.28;37.41;100972.31;5017430;27;96675;-75
2023/04/25 00:12:41;;;;;;;0.47;0.30;;;;;;;22.28;37.55;100976.94;5015719;28;96723;-75
2023/04/25 00:15:08;;;;;;;0.88;0.50;;;;;;;22.28;37.26;100968.72;5019777;28;96890;-75
2023/04/25 00:17:38;;;;;;;0.70;0.40;;;;;;;22.28;37.33;100976.94;5016911;28;97267;-75
2023/04/25 00:20:07;;;;;;;1.17;0.40;;;;;;;22.29;37.42;100976.75;5017141;28;97049;-75
2023/04/25 00:22:34;;;;;;;0.57;0.30;;;;;;;22.28;37.58;100985.13;5013007;28;97914;-75
2023/04/25 00:25:01;;;;;;;0.90;0.40;;;;;;;22.28;37.13;100976.94;5007644;28;97084;-75
2023/04/25 00:27:27;;;;;;;0.60;0.30;;;;;;;22.29;37.31;100986.84;5013850;28;96663;-75
2023/04/25 00:29:54;;;;;;;0.60;0.40;;;;;;;22.29;37.54;100984.09;5017869;28;96838;-75
2023/04/25 00:32:20;;;;;;;0.30;0.30;;;;;;;22.28;37.37;100982.41;5014367;28;97422;-75
2023/04/25 00:34:47;;;;;;;0.77;0.47;;;;;;;22.28;37.57;100985.13;5016597;28;99512;-75
2023/04/25 00:37:13;;;;;;;0.60;0.30;;;;;;;22.29;37.27;100989.56;5016420;28;96733;-75
2023/04/25 00:39:40;;;;;;;0.45;0.30;;;;;;;22.28;37.49;100987.88;5019361;28;96676;-75
2023/04/25 00:42:07;;;;;;;0.55;0.40;;;;;;;22.28;37.27;100993.34;5020205;28;98217;-75
2023/04/25 00:44:35;;;;;;;0.63;0.40;;;;;;;22.28;37.27;100983.25;5015627;27;99529;-75
2023/04/25 00:47:02;;;;;;;0.73;0.60;;;;;;;22.27;37.34;100978.81;5022087;27;96781;-75
2023/04/25 00:49:29;;;;;;;0.50;0.30;;;;;;;22.27;37.40;100984.28;5027357;27;99283;-75
2023/04/25 00:51:56;;;;;;;0.57;0.40;;;;;;;22.28;37.25;100979.66;5023003;27;97399;-75
2023/04/25 00:54:23;;;;;;;0.88;0.40;;;;;;;22.27;37.50;100989.75;5025948;27;98503;-76
2023/04/25 00:56:49;;;;;;;0.40;0.25;;;;;;;22.28;37.46;100982.41;5019131;27;96818;-76
2023/04/25 00:59:18;;;;;;;0.40;0.38;;;;;;;22.28;37.31;100990.59;5025076;27;96891;-75
2023/04/25 01:01:45;;;;;;;0.98;0.40;;;;;;;22.27;37.18;100989.75;5027378;27;97628;-76
2023/04/25 01:04:12;;;;;;;0.80;0.50;;;;;;;22.27;37.28;100984.28;5015600;27;99353;-75
2023/04/25 01:06:40;;;;;;;0.75;0.43;;;;;;;22.28;37.33;100979.66;5018218;27;96889;-75
2023/04/25 01:09:07;;;;;;;0.47;0.38;;;;;;;22.29;37.19;100978.63;5015952;27;97222;-75
2023/04/25 01:11:34;;;;;;;0.70;0.30;;;;;;;22.28;37.23;100985.13;5023174;27;96892;-75
2023/04/25 01:14:01;;;;;;;0.60;0.32;;;;;;;22.29;37.39;100984.09;5024065;27;97894;-75
2023/04/25 01:16:28;;;;;;;0.98;0.43;;;;;;;22.28;37.39;100980.50;5023215;27;97174;-76
2023/04/25 01:18:55;;;;;;;0.52;0.25;;;;;;;22.29;37.32;100986.84;5018177;28;97396;-75
2023/04/25 01:21:22;;;;;;;0.38;0.30;;;;;;;22.29;37.26;100992.31;5021398;28;99636;-76
2023/04/25 01:23:49;;;;;;;0.47;0.40;;;;;;;22.28;37.30;100991.47;5012611;28;98238;-76
2023/04/25 01:26:17;;;;;;;0.47;0.30;;;;;;;22.29;37.41;100981.38;5016086;28;97339;-75
2023/04/25 01:28:45;;;;;;;0.50;0.30;;;;;;;22.28;37.39;100988.72;5014758;28;96866;-75
2023/04/25 01:31:12;;;;;;;0.50;0.40;;;;;;;22.29;37.18;100995.03;5019889;28;96897;-76
2023/04/25 01:33:39;;;;;;;0.45;0.38;;;;;;;22.28;37.60;100993.34;5014757;28;96821;-76
2023/04/25 01:36:06;;;;;;;0.40;0.30;;;;;;;22.28;37.19;101002.41;5013251;28;97248;-76
2023/04/25 01:38:35;;;;;;;0.40;0.30;;;;;;;22.28;37.38;100996.94;5018479;28;96913;-76
2023/04/25 01:41:02;;;;;;;0.40;0.30;;;;;;;22.29;37.42;101000.53;5016915;28;98665;-75
2023/04/25 01:43:29;;;;;;;1.17;0.30;;;;;;;22.29;37.11;101006.00;5017454;28;100781;-75
2023/04/25 01:45:56;;;;;;;0.40;0.30;;;;;;;22.29;37.33;101014.19;5015252;28;97325;-75
2023/04/25 01:48:23;;;;;;;0.75;0.43;;;;;;;22.28;37.17;101013.34;5018288;28;96820;-75
2023/04/25 01:50:50;;;;;;;0.40;0.30;;;;;;;22.27;37.45;101014.38;5010975;28;96877;-75
2023/04/25 01:53:16;;;;;;;0.30;0.30;;;;;;;22.28;37.24;101017.97;5013102;28;99193;-76
2023/04/25 01:55:44;;;;;;;0.65;0.30;;;;;;;22.29;37.37;101014.19;4995537;28;96864;-75
2023/04/25 01:58:14;;;;;;;0.55;0.30;;;;;;;22.27;37.24;101017.13;5015754;28;96861;-75
2023/04/25 02:01:16;;;;;;;0.50;0.30;;;;;;;22.26;37.18;101014.56;4981109;28;96902;-76
2023/04/25 02:03:51;;;;;;;0.55;0.40;;;;;;;22.26;37.59;101015.41;5011078;28;99623;-75
2023/04/25 02:06:25;;;;;;;0.93;0.28;;;;;;;22.26;37.46;101020.03;5004100;28;96897;-76
2023/04/25 02:08:53;;;;;;;0.30;0.28;;;;;;;22.27;37.47;101021.72;5019263;28;96903;-75
2023/04/25 02:11:20;;;;;;;0.73;0.30;;;;;;;22.27;37.31;101021.72;5009114;28;99658;-76
2023/04/25 02:13:56;;;;;;;0.50;0.20;;;;;;;22.25;37.45;101016.44;5013836;28;97514;-76
2023/04/25 02:16:38;;;;;;;0.70;0.40;;;;;;;22.26;37.43;101023.63;5014758;28;96804;-76
2023/04/25 02:19:06;;;;;;;0.55;0.30;;;;;;;22.26;37.33;101028.25;5013801;27;97049;-76
2023/04/25 02:21:35;;;;;;;0.85;0.30;;;;;;;22.26;37.55;101023.63;5009897;28;99233;-75
2023/04/25 02:24:03;;;;;;;0.28;0.28;;;;;;;22.27;37.47;101021.72;5016220;28;97195;-76
2023/04/25 02:26:30;;;;;;;1.08;0.40;;;;;;;22.26;37.07;101023.63;5013383;28;98098;-75
2023/04/25 02:28:57;;;;;;;0.70;0.30;;;;;;;22.27;37.50;101024.47;5011218;28;97428;-75
2023/04/25 02:31:23;;;;;;;0.50;0.40;;;;;;;22.26;37.29;101028.25;5015480;28;101016;-75
2023/04/25 02:33:51;;;;;;;0.65;0.40;;;;;;;22.27;37.49;101032.69;5012607;28;97424;-75
2023/04/25 02:36:18;;;;;;;0.60;0.40;;;;;;;22.26;37.57;101031.81;5010688;28;97756;-75
2023/04/25 02:38:45;;;;;;;0.52;0.40;;;;;;;22.27;37.31;101035.41;5019819;28;97227;-75
2023/04/25 02:41:11;;;;;;;0.80;0.40;;;;;;;22.27;37.14;101029.94;5008990;28;97697;-76
2023/04/25 02:43:37;;;;;;;0.10;0.10;;;;;;;22.27;37.42;101036.28;5015333;28;96802;-75
2023/04/25 02:46:04;;;;;;;0.55;0.28;;;;;;;22.27;37.28;101032.69;5016455;28;97024;-76
2023/04/25 02:48:31;;;;;;;0.93;0.50;;;;;;;22.26;37.13;101030.97;5019699;27;97137;-75
2023/04/25 02:50:57;;;;;;;0.47;0.30;;;;;;;22.27;37.17;101039.00;5013862;28;97617;-76
2023/04/25 02:53:24;;;;;;;0.30;0.20;;;;;;;22.27;37.22;101036.28;5012269;27;97732;-75
2023/04/25 02:55:52;;;;;;;0.52;0.30;;;;;;;22.26;37.31;101034.56;5009730;28;97529;-75
2023/04/25 02:58:19;;;;;;;0.60;0.30;;;;;;;22.27;37.22;101035.41;5009015;28;96902;-75
2023/04/25 03:00:49;;;;;;;0.50;0.30;;;;;;;22.27;37.38;101035.41;4998581;28;100509;-76
2023/04/25 03:03:21;;;;;;;0.40;0.30;;;;;;;22.25;37.04;101029.28;5019715;28;99112;-76
2023/04/25 03:05:50;;;;;;;0.50;0.38;;;;;;;22.25;37.17;101032.84;5012341;28;97052;-76
2023/04/25 03:08:22;;;;;;;0.40;0.20;;;;;;;22.25;37.38;101032.84;5026028;27;96702;-75
2023/04/25 03:10:51;;;;;;;0.47;0.30;;;;;;;22.25;37.05;101042.94;5025219;28;98748;-75
2023/04/25 03:13:18;;;;;;;0.73;0.30;;;;;;;22.26;37.22;101039.19;5004876;28;100739;-75
2023/04/25 03:15:45;;;;;;;0.52;0.30;;;;;;;22.26;37.53;101047.41;5023742;28;96997;-75
2023/04/25 03:18:12;;;;;;;0.38;0.30;;;;;;;22.26;37.45;101048.25;5018051;27;97051;-76
2023/04/25 03:20:41;;;;;;;0.55;0.30;;;;;;;22.25;37.20;101046.53;5025462;28;99418;-75
2023/04/25 03:23:08;;;;;;;0.32;0.30;;;;;;;22.25;37.21;101048.44;5022269;28;97210;-75
2023/04/25 03:25:35;;;;;;;0.80;0.50;;;;;;;22.26;37.22;101044.66;5025619;28;96815;-75
2023/04/25 03:28:03;;;;;;;0.70;0.20;;;;;;;22.26;37.22;101044.66;5009279;28;96792;-75
2023/04/25 03:30:30;;;;;;;0.40;0.30;;;;;;;22.25;37.10;101048.44;5022451;27;99480;-75
2023/04/25 03:32:57;;;;;;;0.40;0.30;;;;;;;22.25;37.16;101045.69;5009326;28;96954;-75
2023/04/25 03:35:24;;;;;;;0.52;0.30;;;;;;;22.25;37.39;101049.28;5009745;28;97025;-75
2023/04/25 03:37:51;;;;;;;0.30;0.28;;;;;;;22.25;37.45;101043.81;5023278;27;96676;-75
2023/04/25 03:40:24;;;;;;;0.73;0.40;;;;;;;22.25;37.39;101043.81;5022647;27;97722;-75
2023/04/25 03:43:11;;;;;;;0.30;0.30;;;;;;;22.24;37.35;101052.19;5012597;28;96772;-75
2023/04/25 03:45:42;;;;;;;0.50;0.30;;;;;;;22.25;37.13;101051.16;5026038;28;97189;-75
2023/04/25 03:48:08;;;;;;;0.95;0.40;;;;;;;22.25;37.07;101048.44;5022795;28;96988;-76
2023/04/25 03:50:35;;;;;;;0.30;0.20;;;;;;;22.25;37.25;101056.63;5028108;27;97919;-76
2023/04/25 03:53:02;;;;;;;0.40;0.28;;;;;;;22.25;37.22;101064.84;5025663;27;96647;-75
2023/04/25 03:55:37;;;;;;;0.70;0.47;;;;;;;22.24;37.53;101050.31;5024052;28;97267;-75
2023/04/25 03:58:04;;;;;;;0.60;0.30;;;;;;;22.24;37.10;101057.66;5025580;28;96670;-75
2023/04/25 04:00:31;;;;;;;0.17;0.17;;;;;;;22.24;37.19;101060.41;5028145;27;97765;-76
2023/04/25 04:02:57;;;;;;;0.45;0.30;;;;;;;22.25;37.23;101062.09;5009750;28;96964;-75
2023/04/25 04:05:24;;;;;;;0.47;0.30;;;;;;;22.23;37.33;101048.59;5027359;28;96767;-75
2023/04/25 04:07:55;;;;;;;0.40;0.30;;;;;;;22.23;37.23;101061.44;5028614;27;96651;-76
2023/04/25 04:10:22;;;;;;;0.70;0.30;;;;;;;22.24;37.05;101061.25;5027938;27;99651;-75
2023/04/25 04:12:49;;;;;;;0.90;0.43;;;;;;;22.24;37.17;101060.41;5010671;28;98622;-75
2023/04/25 04:15:16;;;;;;;0.65;0.40;;;;;;;22.23;37.52;101065.03;5020832;28;96745;-75
2023/04/25 04:17:44;;;;;;;0.40;0.40;;;;;;;22.23;37.44;101067.75;5023819;28;96827;-75
2023/04/25 04:20:11;;;;;;;0.43;0.32;;;;;;;22.24;37.30;101074.09;5027189;28;99303;-76
2023/04/25 04:22:39;;;;;;;0.40;0.28;;;;;;;22.24;37.46;101074.09;5024742;28;98229;-76
2023/04/25 04:25:11;;;;;;;0.65;0.30;;;;;;;22.23;37.21;101075.97;5028097;28;97222;-76
2023/04/25 04:27:57;;;;;;;0.47;0.30;;;;;;;22.22;37.51;101076.13;5028788;28;97125;-76
2023/04/25 04:30:37;;;;;;;0.60;0.30;;;;;;;22.21;37.40;101072.56;5026529;28;97450;-75
2023/04/25 04:33:07;;;;;;;0.40;0.30;;;;;;;22.22;37.05;101074.25;5022678;28;99631;-75
2023/04/25 04:35:34;;;;;;;0.22;0.20;;;;;;;22.22;37.39;101087.94;5025765;28;96776;-76
2023/04/25 04:38:01;;;;;;;1.23;0.60;;;;;;;22.23;37.35;101080.59;5011233;28;97066;-75
2023/04/25 04:40:32;;;;;;;0.38;0.20;;;;;;;22.22;37.12;101084.34;5008422;28;99521;-76
2023/04/25 04:43:09;;;;;;;0.17;0.17;;;;;;;22.22;37.32;101089.81;5027119;28;99824;-75
2023/04/25 04:45:55;;;;;;;0.95;0.40;;;;;;;22.20;37.09;101093.59;5024924;27;96815;-75
2023/04/25 04:48:49;;;;;;;0.50;0.30;;;;;;;22.20;37.28;101101.78;5025002;28;97522;-75
2023/04/25 04:51:21;;;;;;;0.40;0.30;;;;;;;22.20;37.55;101100.94;5026179;28;98789;-74
2023/04/25 04:54:02;;;;;;;0.30;0.30;;;;;;;22.18;37.09;101103.84;5016763;28;98909;-75
2023/04/25 04:56:47;;;;;;;0.10;0.10;;;;;;;22.19;37.19;101108.28;5021965;28;96732;-75
2023/04/25 04:59:35;;;;;;;0.57;0.30;;;;;;;22.19;37.61;101112.91;5026086;28;96852;-75
2023/04/25 05:02:30;;;;;;;0.40;0.28;;;;;;;22.18;37.19;101112.06;5018321;28;98211;-75
2023/04/25 05:05:16;;;;;;;0.68;0.40;;;;;;;22.18;37.37;101113.94;5018515;28;96793;-75
2023/04/25 05:08:06;;;;;;;0.70;0.30;;;;;;;22.18;37.24;101120.28;5004405;28;96847;-75
2023/04/25 05:10:53;;;;;;;0.30;0.30;;;;;;;22.18;37.32;101120.28;4995055;28;96900;-75
2023/04/25 05:13:32;;;;;;;0.43;0.30;;;;;;;22.18;37.19;101122.16;5021782;28;97708;-75
2023/04/25 05:16:36;;;;;;;0.35;0.30;;;;;;;22.17;37.24;101129.50;5011490;27;98227;-75
2023/04/25 05:19:35;;;;;;;0.50;0.40;;;;;;;22.18;37.52;101144.03;5024503;28;97323;-75
2023/04/25 05:22:20;;;;;;;0.30;0.20;;;;;;;22.17;37.18;101142.34;5022707;28;97116;-75
2023/04/25 05:25:09;;;;;;;0.43;0.30;;;;;;;22.17;37.22;101147.81;5014648;27;98881;-75
2023/04/25 05:27:54;;;;;;;0.38;0.25;;;;;;;22.16;37.38;101146.94;5024152;28;96972;-75
2023/04/25 05:30:39;;;;;;;0.30;0.20;;;;;;;22.17;37.43;101154.13;5025903;27;96644;-76
2023/04/25 05:33:14;;;;;;;0.30;0.20;;;;;;;22.17;37.55;101165.06;5025686;28;97104;-75
2023/04/25 05:35:41;;;;;;;0.43;0.30;;;;;;;22.18;37.01;101158.56;5025700;27;98436;-75
2023/04/25 05:38:08;;;;;;;0.50;0.28;;;;;;;22.19;37.44;101162.16;5027346;28;99339;-75
2023/04/25 05:41:12;;;;;;;0.40;0.30;;;;;;;22.19;37.40;101164.91;5031696;28;97094;-75
2023/04/25 05:43:46;;;;;;;0.50;0.30;;;;;;;22.20;37.56;101169.34;5024141;28;96624;-75
2023/04/25 05:46:36;;;;;;;0.65;0.30;;;;;;;22.18;37.63;101164.03;5011504;27;99108;-75
2023/04/25 05:49:13;;;;;;;0.68;0.22;;;;;;;22.19;37.47;101173.97;5017732;27;99618;-75
2023/04/25 05:52:00;;;;;;;0.30;0.20;;;;;;;22.19;37.36;101179.44;5022040;27;96686;-75
2023/04/25 05:54:46;;;;;;;0.75;0.35;;;;;;;22.19;37.41;101184.91;5019558;27;97508;-75
2023/04/25 05:57:21;;;;;;;0.30;0.20;;;;;;;22.22;37.12;101185.56;5021641;27;97203;-75
2023/04/25 05:59:48;;;;;;;0.30;0.20;;;;;;;22.20;37.33;101181.13;5023025;27;100160;-75
2023/04/25 06:02:14;;;;;;;0.65;0.30;;;;;;;22.20;37.52;101186.59;5024203;27;97028;-75
2023/04/25 06:04:42;;;;;;;0.40;0.30;;;;;;;22.22;37.28;101182.84;5021673;27;96685;-75
2023/04/25 06:07:09;;;;;;;0.17;0.10;;;;;;;22.22;37.21;101180.09;5018133;27;100639;-75
2023/04/25 06:09:36;;;;;;;0.50;0.22;;;;;;;22.22;37.11;101180.09;5021180;27;98908;-76
2023/04/25 06:12:03;;;;;;;0.40;0.20;;;;;;;22.23;37.20;101188.13;5024679;27;96737;-76
2023/04/25 06:14:30;;;;;;;0.38;0.38;;;;;;;22.23;37.48;101190.03;5028439;27;97087;-76
2023/04/25 06:16:57;;;;;;;0.88;0.40;;;;;;;22.24;37.33;101189.00;5023170;27;99443;-76
2023/04/25 06:19:25;;;;;;;0.20;0.20;;;;;;;22.24;37.05;101186.25;5036996;27;99226;-76
2023/04/25 06:21:52;;;;;;;0.28;0.28;;;;;;;22.25;37.50;101194.28;5006158;27;97171;-76
2023/04/25 06:24:19;;;;;;;0.25;0.20;;;;;;;22.24;37.37;101189.84;5014103;27;97343;-76
2023/04/25 06:26:47;;;;;;;0.20;0.17;;;;;;;22.24;37.22;101189.84;5023815;27;97851;-76
2023/04/25 06:29:14;;;;;;;0.35;0.30;;;;;;;22.24;37.16;101198.06;4999847;27;97663;-76
2023/04/25 06:31:41;;;;;;;0.38;0.25;;;;;;;22.25;37.29;101197.03;5001406;27;97260;-76
2023/04/25 06:34:08;;;;;;;0.50;0.30;;;;;;;22.25;37.02;101197.03;5021144;27;96971;-76
2023/04/25 06:36:39;;;;;;;0.65;0.30;;;;;;;22.25;37.21;101196.16;5021746;27;100019;-76
2023/04/25 06:39:08;;;;;;;0.20;0.20;;;;;;;22.26;37.19;101206.09;5018074;27;100161;-76
2023/04/25 06:41:35;;;;;;;0.50;0.30;;;;;;;22.25;37.32;101204.38;5021525;27;96975;-76
2023/04/25 06:44:05;;;;;;;0.80;0.40;;;;;;;22.26;37.31;101208.81;5018718;27;96724;-76
2023/04/25 06:46:38;;;;;;;0.50;0.30;;;;;;;22.25;37.42;101212.59;5023388;27;99148;-76
2023/04/25 06:49:05;;;;;;;1.50;0.40;;;;;;;22.26;37.47;101214.28;5024417;27;99978;-76
2023/04/25 06:51:31;;;;;;;2.13;0.47;;;;;;;22.25;37.01;101216.16;5016653;27;96709;-75
2023/04/25 06:53:58;;;;;;;1.40;0.30;;;;;;;22.27;37.18;101225.06;5028425;27;97286;-75
2023/04/25 06:56:30;;;;;;;1.17;0.40;;;;;;;22.26;36.98;101222.50;5019549;27;98971;-75
2023/04/25 06:59:09;;;;;;;1.17;0.35;;;;;;;22.26;37.50;101219.75;5014541;27;99042;-75
2023/04/25 07:01:38;;;;;;;0.40;0.22;;;;;;;22.26;37.33;101228.81;5004686;27;96846;-76
2023/04/25 07:04:09;;;;;;;0.47;0.30;;;;;;;22.25;37.06;101227.13;5023745;27;97132;-75
2023/04/25 07:06:42;;;;;;;3.60;1.40;;;;;;;22.25;37.42;101231.72;5024517;27;100415;-75
2023/04/25 07:09:10;;;;;;;0.95;0.40;;;;;;;22.25;37.07;101231.72;5021663;27;100077;-76
2023/04/25 07:11:37;;;;;;;0.77;0.50;;;;;;;22.25;37.08;101231.72;5026010;27;97288;-75
2023/04/25 07:14:04;;;;;;;1.15;0.30;;;;;;;22.25;37.40;101237.22;5011718;27;96969;-75
2023/04/25 07:16:31;;;;;;;0.43;0.30;;;;;;;22.25;37.10;101242.69;5026071;27;100552;-75
2023/04/25 07:19:01;;;;;;;1.27;0.50;;;;;;;22.25;37.16;101245.41;5018625;27;98656;-76
2023/04/25 07:21:28;;;;;;;0.40;0.20;;;;;;;22.25;37.16;101253.63;5024195;27;96926;-75
2023/04/25 07:23:55;;;;;;;1.08;0.30;;;;;;;22.24;37.44;101246.44;5015086;27;96775;-76
2023/04/25 07:26:27;;;;;;;0.60;0.40;;;;;;;22.24;37.21;101247.31;5016734;27;100077;-76
2023/04/25 07:29:14;;;;;;;0.60;0.35;;;;;;;22.23;37.39;101256.53;5019565;27;99320;-75
2023/04/25 07:31:41;;;;;;;0.90;0.47;;;;;;;22.26;37.33;101258.91;5011331;27;97173;-76
2023/04/25 07:34:08;;;;;;;0.90;0.40;;;;;;;22.26;37.64;101258.06;5019231;27;96767;-76
2023/04/25 07:36:37;;;;;;;1.40;0.32;;;;;;;22.25;37.54;101257.22;5012058;27;97826;-75
2023/04/25 07:39:04;;;;;;;0.40;0.40;;;;;;;22.27;37.47;101257.03;5017130;27;99157;-76
2023/04/25 07:41:30;;;;;;;1.35;0.77;;;;;;;22.26;37.87;101255.34;5013213;27;96875;-76
2023/04/25 07:43:58;;;;;;;0.98;0.50;;;;;;;22.27;37.67;101267.97;5019931;27;96896;-76
2023/04/25 07:46:25;;;;;;;2.45;0.60;;;;;;;22.26;37.58;101264.41;5020181;27;99100;-76
2023/04/25 07:48:52;;;;;;;1.27;0.43;;;;;;;22.26;37.86;101264.41;5025731;27;97747;-76
2023/04/25 07:51:19;;;;;;;1.80;0.55;;;;;;;22.26;37.51;101271.75;5027517;28;96921;-75
2023/04/25 07:53:47;;;;;;;0.70;0.40;;;;;;;22.25;37.60;101273.63;5027443;27;96848;-76
2023/04/25 07:56:16;;;;;;;1.38;0.47;;;;;;;22.25;37.90;101279.09;5019930;27;97448;-76
2023/04/25 07:58:46;;;;;;;1.02;0.38;;;;;;;22.24;37.71;101285.59;5021717;27;100326;-76
2023/04/25 08:01:15;;;;;;;1.48;0.50;;;;;;;22.25;37.92;101295.53;5012580;28;96727;-76
2023/04/25 08:03:52;;;;;;;1.25;0.50;;;;;;;22.25;37.99;101294.66;5016048;27;96729;-76
2023/04/25 08:06:31;;;;;;;0.80;0.50;;;;;;;22.23;38.27;101293.97;5026972;28;100308;-76
2023/04/25 08:09:08;;;;;;;0.88;0.47;;;;;;;22.22;37.94;101298.59;5023064;27;100602;-76
2023/04/25 08:11:38;;;;;;;1.00;0.40;;;;;;;22.22;37.88;101304.06;5016492;28;96798;-76
2023/04/25 08:14:07;;;;;;;0.80;0.40;;;;;;;22.22;37.94;101301.34;5029481;28;96957;-76
2023/04/25 08:16:34;;;;;;;0.80;0.40;;;;;;;22.23;37.72;101304.94;5010886;28;99665;-76
2023/04/25 08:19:02;;;;;;;0.82;0.40;;;;;;;22.22;37.85;101311.44;5019287;28;99094;-76
2023/04/25 08:21:29;;;;;;;0.95;0.50;;;;;;;22.22;37.70;101315.03;5011755;28;96768;-75
2023/04/25 08:23:58;;;;;;;0.85;0.35;;;;;;;22.21;38.05;101316.03;5029219;28;97439;-75
2023/04/25 08:26:28;;;;;;;1.20;0.60;;;;;;;22.20;37.78;101320.66;5023700;28;101482;-76
2023/04/25 08:28:56;;;;;;;1.00;0.50;;;;;;;22.22;37.77;101320.50;5020397;28;97259;-76
2023/04/25 08:31:23;;;;;;;1.15;0.40;;;;;;;22.22;37.75;101319.63;5028598;28;97004;-76
2023/04/25 08:33:56;;;;;;;0.95;0.40;;;;;;;22.20;37.71;101320.66;5029008;28;96703;-75
2023/04/25 08:36:32;;;;;;;1.05;0.50;;;;;;;22.22;37.84;101322.38;5015725;28;98130;-75
2023/04/25 08:39:17;;;;;;;0.60;0.40;;;;;;;22.20;37.78;101326.13;5025601;28;100478;-75
2023/04/25 08:42:10;;;;;;;0.68;0.50;;;;;;;22.19;37.59;101335.38;5008731;28;96692;-76
2023/04/25 08:44:37;;;;;;;0.77;0.40;;;;;;;22.19;37.56;101329.91;5028577;28;96771;-75
2023/04/25 08:47:05;;;;;;;0.95;0.50;;;;;;;22.19;37.54;101335.38;5027244;28;98825;-76
2023/04/25 08:49:44;;;;;;;0.52;0.38;;;;;;;22.19;37.81;101340.00;5008539;28;97753;-76
2023/04/25 08:52:12;;;;;;;0.60;0.30;;;;;;;22.18;37.53;101339.13;5026247;28;97644;-76
2023/04/25 08:54:48;;;;;;;0.68;0.55;;;;;;;22.19;37.93;101340.00;5032300;27;97266;-76
2023/04/25 08:57:18;;;;;;;0.77;0.55;;;;;;;22.19;37.79;101340.00;5015664;28;98896;-75
2023/04/25 08:59:46;;;;;;;0.90;0.50;;;;;;;22.19;37.74;101337.25;5024251;28;98855;-76
2023/04/25 09:02:16;;;;;;;0.57;0.40;;;;;;;22.18;37.54;101350.06;5019890;28;96702;-75
2023/04/25 09:04:46;;;;;;;0.82;0.50;;;;;;;22.18;37.85;101350.06;5032333;28;96793;-75
2023/04/25 09:07:15;;;;;;;0.88;0.60;;;;;;;22.19;37.77;101359.13;5031210;28;98912;-76
2023/04/25 09:09:42;;;;;;;0.70;0.30;;;;;;;22.19;37.74;101365.47;5029764;28;99450;-75
2023/04/25 09:12:08;;;;;;;1.10;0.40;;;;;;;22.19;37.59;101375.56;5018952;28;96679;-76
2023/04/25 09:14:35;;;;;;;1.30;0.40;;;;;;;22.19;37.65;101372.81;5031043;28;96640;-75
2023/04/25 09:17:07;;;;;;;0.95;0.40;;;;;;;22.18;38.14;101388.38;5011323;28;96896;-75
2023/04/25 09:19:40;;;;;;;0.40;0.30;;;;;;;22.17;37.56;101385.81;5026929;28;100310;-75
2023/04/25 09:22:23;;;;;;;1.17;0.50;;;;;;;22.17;37.54;101394.88;5031276;28;97138;-75
2023/04/25 09:24:50;;;;;;;0.70;0.40;;;;;;;22.17;37.67;101394.88;5030544;27;97099;-76
2023/04/25 09:27:22;;;;;;;0.95;0.50;;;;;;;22.16;37.72;101393.16;5031402;28;99346;-76
2023/04/25 09:30:01;;;;;;;1.00;0.40;;;;;;;22.17;37.93;101400.34;5031550;28;98747;-75
2023/04/25 09:32:43;;;;;;;0.82;0.40;;;;;;;22.15;37.67;101405.13;5030657;27;96979;-76
2023/04/25 09:35:11;;;;;;;1.08;0.43;;;;;;;22.15;37.66;101405.13;5030762;27;97108;-75
2023/04/25 09:37:40;;;;;;;1.08;0.60;;;;;;;22.15;37.57;101407.03;5030520;28;100761;-75
2023/04/25 09:40:43;;;;;;;1.48;0.40;;;;;;;22.14;37.66;101414.38;5030156;28;97455;-75
2023/04/25 09:43:22;;;;;;;0.55;0.35;;;;;;;22.13;37.86;101418.13;5021386;28;97193;-76
2023/04/25 09:45:51;;;;;;;0.60;0.50;;;;;;;22.14;37.49;101421.72;5027997;28;96958;-76
2023/04/25 09:48:20;;;;;;;0.90;0.60;;;;;;;22.14;37.67;101422.56;5021207;28;99681;-75
2023/04/25 09:51:13;;;;;;;1.00;0.43;;;;;;;22.13;37.36;101431.81;5030092;28;97766;-76
2023/04/25 09:53:49;;;;;;;0.60;0.43;;;;;;;22.13;37.71;101431.81;5030216;28;96785;-76
2023/04/25 09:56:31;;;;;;;0.80;0.40;;;;;;;22.13;37.52;101429.06;5012300;28;96787;-76
2023/04/25 09:59:00;;;;;;;1.17;0.33;;;;;;;22.12;37.40;101435.56;5025299;28;96990;-76
2023/04/25 10:01:27;;;;;;;0.60;0.30;;;;;;;22.13;37.38;101430.94;5029188;28;97338;-75
2023/04/25 10:04:12;;;;;;;0.63;0.30;;;;;;;22.12;37.70;101441.03;5020538;28;97037;-76
2023/04/25 10:07:00;;;;;;;1.83;0.50;;;;;;;22.11;37.61;101430.28;5026493;28;96858;-75
2023/04/25 10:09:33;;;;;;;0.55;0.30;;;;;;;22.12;37.70;101441.03;5026535;28;100586;-76
2023/04/25 10:12:00;;;;;;;0.60;0.40;;;;;;;22.12;37.61;101432.84;5031412;28;96657;-76
2023/04/25 10:14:27;;;;;;;0.50;0.30;;;;;;;22.13;37.68;101437.28;5030055;28;96694;-76
2023/04/25 10:16:55;;;;;;;0.73;0.40;;;;;;;22.13;37.79;101428.22;5016801;27;97099;-75
2023/04/25 10:19:24;;;;;;;0.80;0.40;;;;;;;22.14;37.87;101438.13;5025317;28;97867;-76
2023/04/25 10:22:14;;;;;;;0.75;0.40;;;;;;;22.12;37.40;101430.09;5025471;28;97407;-76
2023/04/25 10:24:41;;;;;;;0.80;0.40;;;;;;;22.13;37.29;101431.81;5028076;28;96727;-76
2023/04/25 10:27:08;;;;;;;0.45;0.40;;;;;;;22.13;37.45;101429.06;5021265;27;97419;-76
2023/04/25 10:29:35;;;;;;;0.38;0.20;;;;;;;22.14;37.33;101428.03;5017072;28;97793;-75
2023/04/25 10:32:02;;;;;;;0.93;0.50;;;;;;;22.15;37.43;101428.91;5020316;27;96802;-76
2023/04/25 10:34:43;;;;;;;0.75;0.40;;;;;;;22.16;37.44;101427.88;5026561;27;97227;-75
2023/04/25 10:37:10;;;;;;;0.45;0.32;;;;;;;22.14;37.76;101422.56;5021486;28;96750;-76
2023/04/25 10:39:41;;;;;;;0.52;0.30;;;;;;;22.15;37.39;101446.16;5019029;28;97382;-76
2023/04/25 10:42:08;;;;;;;0.73;0.30;;;;;;;22.14;37.37;101441.72;5023812;28;97653;-77
2023/04/25 10:44:37;;;;;;;0.40;0.30;;;;;;;22.14;37.67;101444.47;5022279;28;98017;-76
2023/04/25 10:47:07;;;;;;;0.80;0.40;;;;;;;22.14;37.30;101447.19;5016836;27;96825;-75
2023/04/25 10:49:36;;;;;;;0.65;0.55;;;;;;;22.13;37.36;101450.97;5015581;27;97834;-76
2023/04/25 10:52:16;;;;;;;0.60;0.40;;;;;;;22.15;37.58;101456.25;5026197;28;96967;-76
2023/04/25 10:55:03;;;;;;;1.40;0.40;;;;;;;22.14;37.79;101455.41;5029618;28;96793;-76
2023/04/25 10:57:40;;;;;;;0.90;0.40;;;;;;;22.14;37.40;101460.03;5028761;27;96858;-75
2023/04/25 11:00:15;;;;;;;0.50;0.30;;;;;;;22.13;37.74;101456.44;5031481;27;97790;-76
2023/04/25 11:02:47;;;;;;;0.70;0.22;;;;;;;22.12;37.27;101457.47;5022266;28;99059;-76
2023/04/25 11:05:32;;;;;;;0.40;0.30;;;;;;;22.13;37.55;101455.56;5014289;28;96871;-75
2023/04/25 11:08:13;;;;;;;0.70;0.30;;;;;;;22.12;37.31;101440.19;5024534;28;96821;-76
2023/04/25 11:10:40;;;;;;;0.70;0.28;;;;;;;22.11;37.63;101442.06;5012959;27;99028;-76
2023/04/25 11:13:06;;;;;;;0.40;0.30;;;;;;;22.13;37.55;101441.91;5022130;28;97049;-76
2023/04/25 11:15:33;;;;;;;0.75;0.50;;;;;;;22.12;37.59;101441.03;5024801;28;96843;-76
2023/04/25 11:18:00;;;;;;;0.88;0.30;;;;;;;22.13;37.33;101440.03;5031064;28;96874;-76
2023/04/25 11:20:28;;;;;;;0.73;0.45;;;;;;;22.13;37.54;101445.50;5021328;27;96804;-76
2023/04/25 11:22:58;;;;;;;0.55;0.30;;;;;;;22.14;37.31;101449.09;5020459;27;98045;-77
2023/04/25 11:25:25;;;;;;;0.47;0.30;;;;;;;22.13;37.49;101448.22;5024052;28;96841;-76
2023/04/25 11:27:53;;;;;;;0.70;0.30;;;;;;;22.14;37.25;101454.56;5020737;28;96845;-76
2023/04/25 11:30:21;;;;;;;0.60;0.40;;;;;;;22.14;37.67;101460.88;5021103;28;100282;-76
2023/04/25 11:32:48;;;;;;;0.50;0.40;;;;;;;22.13;37.40;101461.91;5026277;27;97424;-76
2023/04/25 11:35:15;;;;;;;0.52;0.30;;;;;;;22.13;37.44;101470.09;5023425;28;96709;-76
2023/04/25 11:37:43;;;;;;;0.55;0.30;;;;;;;22.13;37.40;101475.59;5013077;28;96837;-76
2023/04/25 11:40:11;;;;;;;1.23;0.50;;;;;;;22.14;37.37;101481.91;5020576;28;96978;-76
2023/04/25 11:42:45;;;;;;;0.22;0.20;;;;;;;22.13;37.09;101472.84;5030402;27;97175;-76